Huvudsida
METAR-TAF:

METAR-TAF

Flygplatser :

Cam Ranhs internationella flygplats

Cam Ranh, Vietnam

latitud: 11-59-53N, longitud: 109-13-10E, höjd: 12 m

Aktuellt väderrapport

Denna rapport gjordes för 24 minuter sedan, klockan 15:30 UTC
Vind 1 kt varierande vindriktning
Temperatur 30°C
Fuktighet 70%
Tryck 1009 hPa
Sikt 10 km eller mer
Inga moln under 1 500 m eller inga cumulonimbus

METAR: VVCR 211530Z VRB01KT CAVOK 30/24 Q1009 NOSIG

Tid: 22:54 (15:54 UTC)

Väderprognos

Denna rapport gjordes för 4 timmar och 54 minuter sedan, klockan 11:00 UTC
Prognos gäller från 21 kl. 12 UTC till 22 kl. 12 UTC
Vind 6 kt från väst/sydväst
Sikt 10 km eller mer
Få moln på en höjd av 1700 ft

TAF: VVCR 211100Z 2112/2212 25006KT 9999 FEW017

Aktuella väderrapporter och prognoser från 4000 flygplatser (METAR- och TAF-rapporter).

De tillgängliga stationerna syns som gula och röda prickar på kartan.

För musen över prickarna för att se namnen på stationerna.

Klicka sedan för att få väderrapporter och prognoser.

För att ändra kartan: Klicka på de gröna knapparna med ett svart kors på för att zooma in; den gröna knappen med ett streck på för att zooma ut; eller på de gröna pilarna för angränsande kartor.


METAR-TAF: